createdAt,value
2023-04-21T00:01:13.137Z,44.91
2023-04-21T00:03:43.109Z,45.46
2023-04-21T00:06:12.690Z,45.40
2023-04-21T00:08:42.163Z,44.25
2023-04-21T00:11:15.142Z,45.00
2023-04-21T00:13:44.928Z,45.49
2023-04-21T00:16:14.260Z,45.86
2023-04-21T00:18:43.759Z,45.39
2023-04-21T00:21:12.978Z,45.82
2023-04-21T00:23:42.604Z,45.33
2023-04-21T00:26:13.174Z,45.75
2023-04-21T00:28:45.010Z,46.51
2023-04-21T00:31:14.596Z,45.78
2023-04-21T00:33:44.095Z,46.75
2023-04-21T00:36:13.614Z,45.63
2023-04-21T00:38:43.110Z,45.49
2023-04-21T00:41:13.712Z,45.70
2023-04-21T00:44:05.045Z,45.71
2023-04-21T00:46:34.561Z,45.88
2023-04-21T00:49:07.056Z,46.87
2023-04-21T00:51:38.064Z,46.22
2023-04-21T00:54:09.073Z,45.65
2023-04-21T00:56:39.923Z,46.09
2023-04-21T00:59:09.417Z,45.67
2023-04-21T01:01:40.255Z,45.45
2023-04-21T01:04:10.701Z,45.85
2023-04-21T01:06:40.091Z,45.77
2023-04-21T01:09:09.657Z,45.42
2023-04-21T01:11:40.615Z,46.02
2023-04-21T01:14:10.355Z,45.44
2023-04-21T01:16:40.167Z,45.47
2023-04-21T01:19:09.770Z,45.29
2023-04-21T01:21:43.406Z,44.68
2023-04-21T01:24:13.357Z,44.14
2023-04-21T01:26:44.850Z,44.85
2023-04-21T01:29:14.552Z,45.99
2023-04-21T01:31:44.094Z,45.31
2023-04-21T01:34:13.596Z,45.93
2023-04-21T01:36:44.329Z,46.33
2023-04-21T01:39:13.797Z,46.61
2023-04-21T01:41:43.073Z,46.24
2023-04-21T01:44:12.499Z,45.85
2023-04-21T01:46:41.854Z,45.86
2023-04-21T01:49:11.370Z,46.20
2023-04-21T01:51:40.593Z,46.18
2023-04-21T01:54:11.664Z,46.17
2023-04-21T01:56:41.568Z,45.81
2023-04-21T01:59:11.176Z,46.52
2023-04-21T02:01:40.525Z,46.42
2023-04-21T02:04:10.181Z,46.79
2023-04-21T02:06:39.524Z,47.20
2023-04-21T02:09:11.131Z,46.46
2023-04-21T02:11:40.314Z,46.28
2023-04-21T02:14:09.746Z,45.92
2023-04-21T02:16:39.158Z,45.30
2023-04-21T02:19:09.522Z,45.98
2023-04-21T02:21:38.685Z,45.83
2023-04-21T02:24:08.359Z,46.03
2023-04-21T02:26:38.890Z,45.98
2023-04-21T02:29:08.442Z,46.45
2023-04-21T02:36:07.319Z,46.55
2023-04-21T02:38:36.885Z,46.06
2023-04-21T02:41:06.357Z,45.73
2023-04-21T02:43:38.104Z,46.37
2023-04-21T02:46:10.632Z,46.37
2023-04-21T02:48:40.131Z,46.93
2023-04-21T02:51:13.854Z,46.44
2023-04-21T02:53:44.426Z,46.49
2023-04-21T02:56:13.776Z,46.18
2023-04-21T02:58:44.877Z,45.62
2023-04-21T03:01:14.151Z,45.19
2023-04-21T03:03:43.852Z,45.71
2023-04-21T03:06:14.260Z,45.30
2023-04-21T03:08:43.779Z,45.04
2023-04-21T03:11:12.923Z,45.16
2023-04-21T03:13:43.828Z,45.31
2023-04-21T03:16:14.463Z,45.94
2023-04-21T03:18:46.767Z,45.48
2023-04-21T03:21:16.031Z,45.58
2023-04-21T03:23:45.497Z,45.48
2023-04-21T03:26:15.177Z,45.28
2023-04-21T03:28:45.973Z,45.15
2023-04-21T03:31:15.575Z,45.34
2023-04-21T03:33:44.996Z,45.38
2023-04-21T03:36:14.168Z,45.96
2023-04-21T03:38:43.671Z,45.35
2023-04-21T03:41:12.877Z,44.95
2023-04-21T03:43:42.273Z,45.03
2023-04-21T03:46:20.027Z,44.61
2023-04-21T03:48:50.095Z,43.98
2023-04-21T03:51:19.439Z,44.07
2023-04-21T03:53:48.900Z,44.41
2023-04-21T03:56:18.094Z,43.64
2023-04-21T03:58:47.499Z,43.65
2023-04-21T04:01:18.002Z,43.91
2023-04-21T04:03:47.552Z,43.75
2023-04-21T04:06:16.899Z,44.72
2023-04-21T04:08:46.535Z,44.54
2023-04-21T04:11:15.634Z,44.11
2023-04-21T04:13:45.349Z,43.83
2023-04-21T04:16:14.576Z,43.62
2023-04-21T04:18:45.827Z,44.05
2023-04-21T04:21:14.985Z,44.04
2023-04-21T04:23:44.430Z,43.44
2023-04-21T04:26:13.529Z,43.62
2023-04-21T04:28:42.929Z,44.47
2023-04-21T04:31:13.733Z,44.77
2023-04-21T04:33:45.203Z,45.19
2023-04-21T04:36:14.449Z,44.97
2023-04-21T04:38:43.968Z,45.33
2023-04-21T04:41:13.592Z,45.16
2023-04-21T04:43:43.996Z,45.65
2023-04-21T04:46:13.642Z,45.81
2023-04-21T04:48:44.442Z,46.10
2023-04-21T04:51:13.529Z,45.68
2023-04-21T04:53:43.083Z,45.78
2023-04-21T04:56:12.300Z,45.47
2023-04-21T04:58:41.949Z,45.55
2023-04-21T05:01:15.046Z,45.43
2023-04-21T05:03:47.018Z,45.23
2023-04-21T05:06:16.235Z,45.36
2023-04-21T05:08:46.328Z,44.67
2023-04-21T05:11:15.858Z,44.32
2023-04-21T05:13:45.329Z,45.87
2023-04-21T05:16:14.750Z,45.38
2023-04-21T05:18:45.813Z,44.58
2023-04-21T05:21:14.924Z,43.71
2023-04-21T05:23:44.369Z,43.19
2023-04-21T05:26:13.663Z,42.86
2023-04-21T05:28:43.135Z,42.20
2023-04-21T05:31:12.207Z,41.84
2023-04-21T05:33:41.822Z,41.39
2023-04-21T05:36:13.250Z,40.95
2023-04-21T05:38:42.743Z,40.82
2023-04-21T05:41:11.889Z,41.78
2023-04-21T05:43:41.330Z,40.44
2023-04-21T05:46:12.014Z,39.80
2023-04-21T05:48:41.718Z,39.72
2023-04-21T05:51:13.534Z,38.97
2023-04-21T05:53:44.697Z,39.20
2023-04-21T05:56:14.199Z,39.25
2023-04-21T05:58:43.577Z,40.32
2023-04-21T06:01:13.124Z,40.13
2023-04-21T06:03:42.780Z,40.13
2023-04-21T06:06:15.120Z,39.79
2023-04-21T06:08:44.759Z,39.29
2023-04-21T06:11:14.109Z,38.29
2023-04-21T06:13:43.700Z,39.02
2023-04-21T06:16:12.881Z,38.94
2023-04-21T06:18:42.519Z,38.74
2023-04-21T06:21:12.912Z,38.37
2023-04-21T06:23:42.440Z,37.96
2023-04-21T06:26:11.484Z,37.67
2023-04-21T06:28:40.945Z,38.42
2023-04-21T06:31:15.460Z,39.00
2023-04-21T06:33:45.359Z,37.62
2023-04-21T06:36:17.851Z,37.83
2023-04-21T06:38:47.803Z,38.28
2023-04-21T06:41:16.904Z,39.67
2023-04-21T06:43:46.456Z,37.87
2023-04-21T06:46:15.870Z,37.54
2023-04-21T06:48:45.667Z,36.96
2023-04-21T06:51:16.413Z,36.25
2023-04-21T06:53:45.800Z,37.12
2023-04-21T06:56:17.578Z,37.31
2023-04-21T06:58:47.996Z,36.49
2023-04-21T07:01:17.316Z,37.37
2023-04-21T07:03:47.422Z,35.95
2023-04-21T07:06:18.222Z,37.59
2023-04-21T07:08:47.979Z,37.65
2023-04-21T07:11:17.189Z,35.74
2023-04-21T07:13:46.697Z,35.73
2023-04-21T07:16:15.882Z,36.20
2023-04-21T07:18:45.393Z,34.37
2023-04-21T07:21:14.639Z,34.71
2023-04-21T07:23:45.389Z,35.11
2023-04-21T07:26:14.670Z,35.65
2023-04-21T07:28:44.226Z,33.47
2023-04-21T07:31:13.334Z,32.96
2023-04-21T07:33:42.912Z,33.98
2023-04-21T07:36:12.113Z,33.35
2023-04-21T07:38:43.310Z,33.03
2023-04-21T07:41:14.586Z,33.25
2023-04-21T07:43:44.332Z,32.62
2023-04-21T07:46:13.971Z,32.58
2023-04-21T07:48:44.844Z,32.65
2023-04-21T07:51:15.799Z,32.74
2023-04-21T07:53:45.443Z,32.64
2023-04-21T07:56:16.129Z,32.94
2023-04-21T07:58:45.953Z,31.87
2023-04-21T08:01:15.142Z,31.39
2023-04-21T08:03:44.768Z,32.49
2023-04-21T08:06:14.369Z,32.15
2023-04-21T08:08:44.003Z,30.85
2023-04-21T08:11:13.342Z,31.56
2023-04-21T08:13:44.392Z,32.10
2023-04-21T08:16:13.762Z,33.13
2023-04-21T08:18:43.337Z,32.39
2023-04-21T08:21:12.597Z,30.82
2023-04-21T08:23:42.924Z,31.13
2023-04-21T08:26:12.196Z,30.68
2023-04-21T08:28:43.368Z,30.74
2023-04-21T08:31:12.658Z,31.36
2023-04-21T08:33:53.895Z,30.99
2023-04-21T08:36:29.987Z,32.02
2023-04-21T08:39:00.399Z,31.23
2023-04-21T08:41:29.751Z,30.90
2023-04-21T08:44:00.610Z,30.89
2023-04-21T08:46:30.477Z,30.50
2023-04-21T08:49:00.643Z,31.30
2023-04-21T08:51:30.601Z,30.22
2023-04-21T08:54:00.496Z,30.29
2023-04-21T08:56:29.856Z,30.32
2023-04-21T08:59:01.302Z,29.50
2023-04-21T09:01:31.487Z,30.79
2023-04-21T09:04:18.084Z,29.21
2023-04-21T09:06:47.659Z,29.81
2023-04-21T09:09:17.477Z,31.01
2023-04-21T09:11:55.504Z,28.21
2023-04-21T09:14:32.995Z,29.24
2023-04-21T09:17:03.520Z,27.34
2023-04-21T09:19:35.837Z,28.62
2023-04-21T09:22:05.237Z,28.94
2023-04-21T09:24:35.459Z,28.92
2023-04-21T09:27:05.743Z,27.75
2023-04-21T09:29:37.181Z,28.26
2023-04-21T09:32:07.534Z,27.27
2023-04-21T09:34:44.312Z,27.92
2023-04-21T09:37:15.695Z,29.04
2023-04-21T09:40:03.492Z,27.83
2023-04-21T09:42:38.113Z,28.12
2023-04-21T09:47:44.857Z,28.73
2023-04-21T09:50:16.422Z,28.59
2023-04-21T09:52:52.216Z,29.32
2023-04-21T09:55:27.156Z,27.33
2023-04-21T09:58:01.721Z,27.27
2023-04-21T10:00:32.722Z,26.81
2023-04-21T10:03:05.912Z,27.03
2023-04-21T10:05:35.667Z,26.44
2023-04-21T10:08:07.133Z,26.19
2023-04-21T10:10:37.546Z,25.93
2023-04-21T10:13:07.020Z,25.72
2023-04-21T10:15:41.687Z,26.23
2023-04-21T10:18:16.897Z,25.51
2023-04-21T10:21:00.330Z,25.86
2023-04-21T10:23:37.505Z,25.05
2023-04-21T10:26:11.309Z,25.28
2023-04-21T10:28:49.566Z,25.36
2023-04-21T10:31:23.124Z,25.30
2023-04-21T10:34:17.954Z,25.00
2023-04-21T10:37:16.310Z,23.47
2023-04-21T10:39:48.692Z,22.78
2023-04-21T10:42:24.746Z,23.46
2023-04-21T10:44:55.662Z,23.44
2023-04-21T10:47:31.929Z,23.01
2023-04-21T10:50:11.549Z,21.74
2023-04-21T10:52:41.066Z,23.15
2023-04-21T10:55:12.753Z,23.67
2023-04-21T10:57:45.487Z,22.14
2023-04-21T11:00:19.646Z,22.82
2023-04-21T11:02:58.832Z,22.06
2023-04-21T11:05:34.724Z,22.36
2023-04-21T11:08:14.889Z,22.03
2023-04-21T11:10:49.976Z,23.04
2023-04-21T11:13:21.470Z,20.63
2023-04-21T11:16:04.542Z,21.12
2023-04-21T11:18:40.203Z,20.74
2023-04-21T11:21:11.150Z,21.41
2023-04-21T11:23:49.305Z,22.10
2023-04-21T11:26:19.723Z,22.93
2023-04-21T11:28:52.395Z,22.02
2023-04-21T11:31:21.652Z,21.67
2023-04-21T11:33:52.610Z,21.26
2023-04-21T11:36:23.757Z,21.21
2023-04-21T11:38:53.503Z,21.21
2023-04-21T11:41:26.459Z,21.14
2023-04-21T11:43:56.000Z,21.17
2023-04-21T11:46:27.433Z,21.62
2023-04-21T11:49:05.914Z,20.10
2023-04-21T11:51:36.581Z,19.36
2023-04-21T11:54:08.550Z,20.97
2023-04-21T11:56:39.042Z,21.01
2023-04-21T11:59:12.317Z,21.16
2023-04-21T12:01:47.946Z,20.84
2023-04-21T12:04:20.629Z,20.01
2023-04-21T12:06:58.456Z,21.36
2023-04-21T12:09:28.979Z,21.50
2023-04-21T12:15:58.235Z,21.12
2023-04-21T12:18:29.491Z,21.48
2023-04-21T12:21:04.237Z,21.46
2023-04-21T12:23:33.563Z,22.15
2023-04-21T12:26:03.018Z,20.97
2023-04-21T12:28:32.250Z,20.37
2023-04-21T12:31:01.948Z,21.26
2023-04-21T12:33:31.292Z,21.82
2023-04-21T12:36:02.436Z,20.18
2023-04-21T12:38:31.664Z,21.49
2023-04-21T12:41:01.340Z,20.92
2023-04-21T12:43:30.747Z,20.27
2023-04-21T12:46:00.989Z,20.46
2023-04-21T12:48:30.432Z,19.92
2023-04-21T12:51:01.305Z,19.80
2023-04-21T12:53:31.297Z,19.84
2023-04-21T12:56:04.645Z,19.41
2023-04-21T12:58:34.663Z,20.49
2023-04-21T13:01:04.218Z,21.29
2023-04-21T13:03:33.554Z,21.41
2023-04-21T13:06:04.491Z,21.35
2023-04-21T13:08:33.785Z,20.85
2023-04-21T13:11:03.383Z,20.83
2023-04-21T13:13:32.731Z,20.74
2023-04-21T13:16:02.111Z,19.86
2023-04-21T13:18:31.334Z,20.75
2023-04-21T13:21:00.689Z,20.17
2023-04-21T13:23:35.265Z,20.34
2023-04-21T13:26:06.452Z,20.91
2023-04-21T13:28:36.503Z,19.83
2023-04-21T13:31:07.101Z,20.55
2023-04-21T13:33:36.604Z,21.66
2023-04-21T13:36:06.789Z,21.65
2023-04-21T13:38:37.870Z,21.77
2023-04-21T13:41:08.076Z,20.84
2023-04-21T13:43:37.523Z,21.21
2023-04-21T13:46:08.019Z,21.09
2023-04-21T13:48:37.759Z,20.79
2023-04-21T13:51:08.167Z,20.82
2023-04-21T13:53:38.765Z,20.79
2023-04-21T13:56:10.148Z,22.05
2023-04-21T13:58:39.636Z,20.65
2023-04-21T14:01:09.151Z,21.48
2023-04-21T14:03:38.520Z,20.73
2023-04-21T14:06:08.489Z,20.67
2023-04-21T14:08:39.113Z,20.93
2023-04-21T14:11:08.629Z,20.28
2023-04-21T14:13:45.457Z,20.37
2023-04-21T14:16:27.381Z,19.57
2023-04-21T14:18:56.816Z,18.89
2023-04-21T14:21:26.450Z,19.29
2023-04-21T14:23:57.087Z,19.17
2023-04-21T14:26:26.691Z,18.68
2023-04-21T14:28:56.498Z,18.32
2023-04-21T14:31:26.094Z,19.17
2023-04-21T14:33:55.614Z,18.49
2023-04-21T14:36:25.507Z,17.93
2023-04-21T14:38:57.590Z,17.81
2023-04-21T14:41:27.184Z,17.75
2023-04-21T14:43:57.881Z,17.53
2023-04-21T14:46:29.199Z,17.28
2023-04-21T14:48:58.809Z,17.75
2023-04-21T14:51:28.899Z,17.24
2023-04-21T14:53:59.423Z,18.00
2023-04-21T14:56:28.982Z,18.05
2023-04-21T14:58:58.181Z,18.51
2023-04-21T15:01:27.763Z,17.90
2023-04-21T15:03:59.828Z,17.86
2023-04-21T15:06:29.874Z,17.79
2023-04-21T15:09:00.436Z,16.54
2023-04-21T15:11:30.002Z,15.74
2023-04-21T15:13:59.119Z,13.93
2023-04-21T15:16:28.696Z,14.50
2023-04-21T15:18:57.954Z,15.05
2023-04-21T15:21:27.851Z,14.88
2023-04-21T15:23:57.221Z,14.34
2023-04-21T15:26:30.342Z,13.80
2023-04-21T15:28:59.603Z,14.57
2023-04-21T15:31:29.979Z,14.45
2023-04-21T15:33:59.564Z,13.57
2023-04-21T15:36:29.585Z,13.81
2023-04-21T15:38:58.877Z,14.10
2023-04-21T15:41:31.573Z,13.91
2023-04-21T15:44:02.144Z,14.36
2023-04-21T15:46:31.706Z,15.34
2023-04-21T15:49:01.086Z,15.93
2023-04-21T15:51:34.227Z,15.91
2023-04-21T15:54:03.516Z,16.07
2023-04-21T15:56:34.555Z,17.28
2023-04-21T15:59:04.002Z,17.54
2023-04-21T16:01:33.554Z,18.14
2023-04-21T16:04:03.508Z,17.47
2023-04-21T16:06:33.317Z,17.89
2023-04-21T16:09:02.809Z,17.99
2023-04-21T16:11:34.515Z,18.27
2023-04-21T16:14:03.736Z,17.46
2023-04-21T16:16:33.215Z,18.25
2023-04-21T16:19:02.829Z,19.17
2023-04-21T16:21:32.366Z,19.52
2023-04-21T16:24:01.826Z,19.83
2023-04-21T16:26:33.318Z,19.97
2023-04-21T16:29:05.192Z,20.22
2023-04-21T16:31:34.716Z,19.92
2023-04-21T16:34:04.073Z,20.53
2023-04-21T16:36:34.128Z,20.52
2023-04-21T16:39:03.504Z,21.31
2023-04-21T16:41:32.997Z,21.70
2023-04-21T16:44:03.882Z,21.56
2023-04-21T16:46:33.590Z,22.04
2023-04-21T16:49:03.286Z,22.46
2023-04-21T16:51:33.036Z,23.02
2023-04-21T16:54:02.351Z,22.87
2023-04-21T16:56:31.945Z,23.56
2023-04-21T16:59:02.394Z,24.01
2023-04-21T17:01:32.068Z,23.70
2023-04-21T17:04:01.762Z,24.11
2023-04-21T17:06:31.990Z,24.15
2023-04-21T17:09:01.206Z,23.81
2023-04-21T17:11:31.970Z,24.82
2023-04-21T17:14:02.457Z,24.35
2023-04-21T17:16:31.932Z,24.26
2023-04-21T17:19:01.227Z,24.79
2023-04-21T17:21:31.797Z,25.05
2023-04-21T17:24:00.911Z,24.96
2023-04-21T17:26:30.438Z,25.81
2023-04-21T17:29:00.524Z,25.99
2023-04-21T17:31:33.077Z,25.89
2023-04-21T17:34:02.391Z,26.14
2023-04-21T17:36:32.193Z,26.11
2023-04-21T17:39:01.683Z,26.75
2023-04-21T17:41:31.164Z,26.83
2023-04-21T17:44:01.137Z,26.36
2023-04-21T17:46:32.723Z,25.98
2023-04-21T17:49:02.135Z,26.87
2023-04-21T17:51:32.043Z,26.97
2023-04-21T17:54:01.298Z,26.73
2023-04-21T17:56:31.191Z,27.17
2023-04-21T17:59:00.483Z,27.23
2023-04-21T18:01:31.719Z,27.18
2023-04-21T18:04:01.720Z,27.83
2023-04-21T18:06:32.031Z,27.87
2023-04-21T18:09:01.394Z,27.36
2023-04-21T18:11:31.279Z,27.78
2023-04-21T18:14:01.058Z,27.51
2023-04-21T18:16:32.364Z,27.37
2023-04-21T18:19:01.808Z,27.88
2023-04-21T18:21:32.354Z,27.74
2023-04-21T18:24:01.865Z,28.22
2023-04-21T18:26:31.835Z,28.22
2023-04-21T18:29:03.011Z,27.88
2023-04-21T18:31:34.533Z,28.65
2023-04-21T18:34:03.855Z,29.15
2023-04-21T18:36:34.051Z,28.03
2023-04-21T18:39:04.164Z,29.00
2023-04-21T18:41:33.764Z,29.51
2023-04-21T18:44:02.955Z,29.23
2023-04-21T18:46:34.216Z,29.02
2023-04-21T18:49:03.324Z,29.03
2023-04-21T18:51:32.832Z,29.04
2023-04-21T18:54:02.100Z,29.56
2023-04-21T18:56:32.507Z,29.91
2023-04-21T18:59:02.124Z,30.01
2023-04-21T19:01:33.151Z,29.09
2023-04-21T19:04:02.679Z,30.94
2023-04-21T19:06:32.865Z,30.58
2023-04-21T19:09:02.283Z,31.49
2023-04-21T19:11:33.590Z,30.50
2023-04-21T19:14:02.883Z,30.90
2023-04-21T19:16:33.961Z,32.54
2023-04-21T19:19:04.863Z,32.07
2023-04-21T19:21:35.559Z,31.68
2023-04-21T19:24:04.873Z,32.14
2023-04-21T19:26:34.266Z,31.92
2023-04-21T19:29:03.777Z,31.56
2023-04-21T19:31:34.889Z,31.08
2023-04-21T19:34:04.207Z,32.03
2023-04-21T19:36:33.730Z,32.15
2023-04-21T19:39:04.556Z,32.44
2023-04-21T19:41:33.900Z,32.15
2023-04-21T19:44:04.114Z,31.96
2023-04-21T19:46:35.261Z,32.98
2023-04-21T19:49:05.538Z,32.73
2023-04-21T19:51:34.960Z,34.00
2023-04-21T19:54:11.505Z,33.95
2023-04-21T19:56:44.759Z,33.99
2023-04-21T19:59:14.257Z,35.69
2023-04-21T20:01:45.405Z,34.12
2023-04-21T20:04:14.872Z,34.42
2023-04-21T20:06:46.834Z,35.85
2023-04-21T20:09:19.175Z,34.78
2023-04-21T20:11:50.148Z,35.52
2023-04-21T20:14:20.462Z,34.74
2023-04-21T20:16:51.557Z,34.87
2023-04-21T20:19:22.995Z,35.79
2023-04-21T20:21:52.683Z,35.08
2023-04-21T20:24:21.893Z,36.09
2023-04-21T20:26:51.620Z,35.64
2023-04-21T20:29:20.920Z,35.71
2023-04-21T20:31:52.143Z,35.19
2023-04-21T20:34:21.418Z,35.14
2023-04-21T20:36:51.762Z,35.69
2023-04-21T20:39:21.316Z,35.62
2023-04-21T20:42:01.012Z,36.19
2023-04-21T20:44:34.236Z,36.18
2023-04-21T20:47:05.651Z,36.76
2023-04-21T20:49:35.246Z,35.74
2023-04-21T20:52:05.100Z,37.04
2023-04-21T20:54:34.979Z,37.11
2023-04-21T20:57:07.518Z,37.11
2023-04-21T20:59:37.158Z,35.97
2023-04-21T21:02:09.133Z,36.75
2023-04-21T21:04:38.702Z,36.04
2023-04-21T21:07:08.437Z,36.31
2023-04-21T21:09:37.757Z,37.50
2023-04-21T21:12:07.816Z,37.94
2023-04-21T21:14:37.094Z,37.96
2023-04-21T21:17:08.483Z,37.95
2023-04-21T21:19:37.978Z,37.77
2023-04-21T21:22:07.709Z,38.54
2023-04-21T21:24:36.934Z,37.76
2023-04-21T21:27:08.180Z,38.38
2023-04-21T21:29:37.678Z,38.55
2023-04-21T21:32:09.058Z,38.74
2023-04-21T21:34:38.194Z,38.66
2023-04-21T21:37:07.957Z,38.16
2023-04-21T21:39:37.667Z,38.08
2023-04-21T21:42:07.384Z,38.69
2023-04-21T21:44:37.462Z,38.57
2023-04-21T21:47:08.396Z,38.25
2023-04-21T21:49:38.425Z,37.72
2023-04-21T21:52:08.217Z,39.03
2023-04-21T21:54:37.355Z,39.36
2023-04-21T21:57:06.988Z,39.21
2023-04-21T21:59:36.717Z,39.92
2023-04-21T22:02:08.020Z,38.77
2023-04-21T22:04:37.983Z,38.40
2023-04-21T22:07:08.132Z,39.03
2023-04-21T22:09:38.465Z,38.54
2023-04-21T22:12:08.558Z,39.07
2023-04-21T22:14:37.790Z,38.50
2023-04-21T22:17:08.793Z,38.06
2023-04-21T22:19:38.345Z,38.28
2023-04-21T22:22:08.206Z,38.73
2023-04-21T22:24:37.537Z,39.41
2023-04-21T22:27:07.013Z,39.29
2023-04-21T22:29:36.464Z,39.82
2023-04-21T22:32:07.772Z,39.37
2023-04-21T22:34:37.202Z,40.02
2023-04-21T22:37:07.053Z,39.17
2023-04-21T22:39:38.257Z,40.09
2023-04-21T22:42:08.075Z,40.09
2023-04-21T22:44:37.756Z,40.53
2023-04-21T22:47:10.619Z,40.64
2023-04-21T22:49:40.238Z,39.64
2023-04-21T22:52:09.978Z,40.33
2023-04-21T22:54:41.197Z,40.18
2023-04-21T22:57:10.894Z,40.34
2023-04-21T22:59:40.362Z,40.48
2023-04-21T23:02:11.609Z,40.27
2023-04-21T23:04:40.791Z,39.45
2023-04-21T23:07:10.269Z,40.14
2023-04-21T23:09:39.799Z,39.79
2023-04-21T23:12:09.476Z,39.89
2023-04-21T23:14:38.907Z,39.67
2023-04-21T23:17:08.991Z,40.26
2023-04-21T23:19:39.895Z,39.87
2023-04-21T23:22:09.671Z,39.58
2023-04-21T23:24:38.780Z,40.20
2023-04-21T23:27:08.286Z,39.94
2023-04-21T23:29:37.785Z,40.24
2023-04-21T23:32:07.643Z,41.15
2023-04-21T23:34:38.303Z,41.16
2023-04-21T23:37:08.035Z,40.75
2023-04-21T23:39:37.723Z,40.31
2023-04-21T23:42:07.629Z,41.10
2023-04-21T23:44:37.642Z,41.62
2023-04-21T23:47:07.192Z,41.47
2023-04-21T23:49:36.450Z,41.29
2023-04-21T23:52:08.176Z,41.30
2023-04-21T23:54:37.496Z,40.96
2023-04-21T23:57:06.992Z,41.11
2023-04-21T23:59:36.387Z,42.05
